sensor_id;sensor_type;location;lat;lon;timestamp;temperature;humidity
37426;DHT22;23285;50.180;7.036;2022-07-09T00:02:39;17.80;96.60
37426;DHT22;23285;50.180;7.036;2022-07-09T00:08:10;17.70;97.20
37426;DHT22;23285;50.180;7.036;2022-07-09T00:10:55;17.80;96.60
37426;DHT22;23285;50.180;7.036;2022-07-09T00:13:40;17.50;96.90
37426;DHT22;23285;50.180;7.036;2022-07-09T00:16:25;17.30;97.20
37426;DHT22;23285;50.180;7.036;2022-07-09T00:19:10;17.30;97.20
37426;DHT22;23285;50.180;7.036;2022-07-09T00:21:55;17.50;97.50
37426;DHT22;23285;50.180;7.036;2022-07-09T00:24:39;17.20;97.20
37426;DHT22;23285;50.180;7.036;2022-07-09T00:30:10;17.30;98.30
37426;DHT22;23285;50.180;7.036;2022-07-09T00:32:55;17.30;97.90
37426;DHT22;23285;50.180;7.036;2022-07-09T00:38:26;17.50;98.30
37426;DHT22;23285;50.180;7.036;2022-07-09T00:41:11;17.60;97.20
37426;DHT22;23285;50.180;7.036;2022-07-09T00:43:56;17.60;97.40
37426;DHT22;23285;50.180;7.036;2022-07-09T00:52:14;17.10;99.00
37426;DHT22;23285;50.180;7.036;2022-07-09T00:55:00;17.00;98.70
37426;DHT22;23285;50.180;7.036;2022-07-09T00:57:45;17.00;98.90
37426;DHT22;23285;50.180;7.036;2022-07-09T01:00:31;17.00;98.20
37426;DHT22;23285;50.180;7.036;2022-07-09T01:03:17;17.00;98.70
37426;DHT22;23285;50.180;7.036;2022-07-09T01:06:02;17.10;97.80
37426;DHT22;23285;50.180;7.036;2022-07-09T01:08:47;17.10;98.20
37426;DHT22;23285;50.180;7.036;2022-07-09T01:11:32;17.20;97.80
37426;DHT22;23285;50.180;7.036;2022-07-09T01:14:17;17.10;98.00
37426;DHT22;23285;50.180;7.036;2022-07-09T01:17:04;17.00;98.00
37426;DHT22;23285;50.180;7.036;2022-07-09T01:19:50;17.20;98.60
37426;DHT22;23285;50.180;7.036;2022-07-09T01:25:42;17.00;99.20
37426;DHT22;23285;50.180;7.036;2022-07-09T01:28:28;17.00;99.20
37426;DHT22;23285;50.180;7.036;2022-07-09T01:31:13;16.70;98.30
37426;DHT22;23285;50.180;7.036;2022-07-09T01:33:59;16.80;98.20
37426;DHT22;23285;50.180;7.036;2022-07-09T01:36:44;16.60;98.60
37426;DHT22;23285;50.180;7.036;2022-07-09T01:39:29;16.90;98.30
37426;DHT22;23285;50.180;7.036;2022-07-09T01:42:14;17.00;98.10
37426;DHT22;23285;50.180;7.036;2022-07-09T01:47:44;16.90;99.10
37426;DHT22;23285;50.180;7.036;2022-07-09T01:50:29;16.80;98.50
37426;DHT22;23285;50.180;7.036;2022-07-09T01:53:14;16.60;99.00
37426;DHT22;23285;50.180;7.036;2022-07-09T01:56:05;16.40;99.80
37426;DHT22;23285;50.180;7.036;2022-07-09T01:58:50;16.30;99.90
37426;DHT22;23285;50.180;7.036;2022-07-09T02:01:35;16.50;99.30
37426;DHT22;23285;50.180;7.036;2022-07-09T02:04:20;16.50;99.10
37426;DHT22;23285;50.180;7.036;2022-07-09T02:07:05;16.70;98.90
37426;DHT22;23285;50.180;7.036;2022-07-09T02:09:50;16.70;98.80
37426;DHT22;23285;50.180;7.036;2022-07-09T02:12:36;16.60;99.10
37426;DHT22;23285;50.180;7.036;2022-07-09T02:15:21;16.50;99.10
37426;DHT22;23285;50.180;7.036;2022-07-09T02:18:07;16.70;98.70
37426;DHT22;23285;50.180;7.036;2022-07-09T02:20:52;16.40;99.10
37426;DHT22;23285;50.180;7.036;2022-07-09T02:23:37;16.40;99.20
37426;DHT22;23285;50.180;7.036;2022-07-09T02:26:22;16.60;98.90
37426;DHT22;23285;50.180;7.036;2022-07-09T02:29:08;16.40;98.90
37426;DHT22;23285;50.180;7.036;2022-07-09T02:34:39;16.60;99.90
37426;DHT22;23285;50.180;7.036;2022-07-09T02:37:24;16.40;99.00
37426;DHT22;23285;50.180;7.036;2022-07-09T02:40:09;16.40;99.00
37426;DHT22;23285;50.180;7.036;2022-07-09T02:42:55;16.20;99.60
37426;DHT22;23285;50.180;7.036;2022-07-09T02:45:40;16.20;99.50
37426;DHT22;23285;50.180;7.036;2022-07-09T02:48:25;16.30;99.20
37426;DHT22;23285;50.180;7.036;2022-07-09T02:53:55;16.30;99.90
37426;DHT22;23285;50.180;7.036;2022-07-09T02:56:40;16.20;99.50
37426;DHT22;23285;50.180;7.036;2022-07-09T02:59:26;16.10;99.40
37426;DHT22;23285;50.180;7.036;2022-07-09T03:02:10;16.00;99.70
37426;DHT22;23285;50.180;7.036;2022-07-09T03:04:56;16.20;99.60
37426;DHT22;23285;50.180;7.036;2022-07-09T03:07:41;16.20;99.40
37426;DHT22;23285;50.180;7.036;2022-07-09T03:10:26;16.20;99.30
37426;DHT22;23285;50.180;7.036;2022-07-09T03:21:27;16.10;99.90
37426;DHT22;23285;50.180;7.036;2022-07-09T03:24:12;15.70;99.90
37426;DHT22;23285;50.180;7.036;2022-07-09T03:26:58;15.70;99.90
37426;DHT22;23285;50.180;7.036;2022-07-09T03:29:43;15.80;99.90
37426;DHT22;23285;50.180;7.036;2022-07-09T03:32:28;15.70;99.90
37426;DHT22;23285;50.180;7.036;2022-07-09T03:35:13;15.80;99.90
37426;DHT22;23285;50.180;7.036;2022-07-09T03:37:58;15.80;99.90
37426;DHT22;23285;50.180;7.036;2022-07-09T03:46:14;16.00;99.90
37426;DHT22;23285;50.180;7.036;2022-07-09T03:48:59;15.90;99.90
37426;DHT22;23285;50.180;7.036;2022-07-09T03:51:44;15.80;99.90
37426;DHT22;23285;50.180;7.036;2022-07-09T03:54:29;15.80;99.90
37426;DHT22;23285;50.180;7.036;2022-07-09T03:57:14;15.70;99.90
37426;DHT22;23285;50.180;7.036;2022-07-09T04:02:45;16.00;99.90
37426;DHT22;23285;50.180;7.036;2022-07-09T04:05:29;15.70;99.90
37426;DHT22;23285;50.180;7.036;2022-07-09T04:08:14;15.90;99.90
37426;DHT22;23285;50.180;7.036;2022-07-09T04:11:00;15.80;99.90
37426;DHT22;23285;50.180;7.036;2022-07-09T04:13:45;15.60;99.90
37426;DHT22;23285;50.180;7.036;2022-07-09T04:16:30;15.50;99.90
37426;DHT22;23285;50.180;7.036;2022-07-09T04:19:15;15.60;99.90
37426;DHT22;23285;50.180;7.036;2022-07-09T04:27:32;15.60;99.90
37426;DHT22;23285;50.180;7.036;2022-07-09T04:33:06;15.80;99.90
37426;DHT22;23285;50.180;7.036;2022-07-09T04:35:51;16.10;99.90
37426;DHT22;23285;50.180;7.036;2022-07-09T04:38:36;16.00;99.90
37426;DHT22;23285;50.180;7.036;2022-07-09T04:41:22;16.00;99.90
37426;DHT22;23285;50.180;7.036;2022-07-09T04:46:52;16.40;99.90
37426;DHT22;23285;50.180;7.036;2022-07-09T04:49:37;16.20;99.90
37426;DHT22;23285;50.180;7.036;2022-07-09T04:52:22;16.30;99.90
37426;DHT22;23285;50.180;7.036;2022-07-09T04:55:11;16.40;99.90
37426;DHT22;23285;50.180;7.036;2022-07-09T04:57:56;16.50;99.90
37426;DHT22;23285;50.180;7.036;2022-07-09T05:00:41;16.70;99.90
37426;DHT22;23285;50.180;7.036;2022-07-09T05:03:26;16.60;99.90
37426;DHT22;23285;50.180;7.036;2022-07-09T05:06:11;16.70;99.90
37426;DHT22;23285;50.180;7.036;2022-07-09T05:08:57;16.80;99.90
37426;DHT22;23285;50.180;7.036;2022-07-09T05:11:42;16.90;99.90
37426;DHT22;23285;50.180;7.036;2022-07-09T05:14:27;16.90;99.90
37426;DHT22;23285;50.180;7.036;2022-07-09T05:19:57;17.00;99.90
37426;DHT22;23285;50.180;7.036;2022-07-09T05:22:42;17.10;99.90
37426;DHT22;23285;50.180;7.036;2022-07-09T05:25:27;17.00;99.90
37426;DHT22;23285;50.180;7.036;2022-07-09T05:28:12;17.00;99.90
37426;DHT22;23285;50.180;7.036;2022-07-09T05:30:57;17.20;99.90
37426;DHT22;23285;50.180;7.036;2022-07-09T05:33:42;17.20;99.90
37426;DHT22;23285;50.180;7.036;2022-07-09T05:36:27;17.60;99.90
37426;DHT22;23285;50.180;7.036;2022-07-09T05:39:15;17.70;99.90
37426;DHT22;23285;50.180;7.036;2022-07-09T05:42:00;18.10;99.90
37426;DHT22;23285;50.180;7.036;2022-07-09T05:44:45;18.00;99.90
37426;DHT22;23285;50.180;7.036;2022-07-09T05:47:30;18.20;99.90
37426;DHT22;23285;50.180;7.036;2022-07-09T05:50:15;18.20;99.90
37426;DHT22;23285;50.180;7.036;2022-07-09T05:53:00;18.10;99.90
37426;DHT22;23285;50.180;7.036;2022-07-09T05:58:31;18.30;99.90
37426;DHT22;23285;50.180;7.036;2022-07-09T06:01:16;18.30;99.90
37426;DHT22;23285;50.180;7.036;2022-07-09T06:04:01;18.20;99.90
37426;DHT22;23285;50.180;7.036;2022-07-09T06:06:46;18.10;99.90
37426;DHT22;23285;50.180;7.036;2022-07-09T06:09:31;18.20;99.90
37426;DHT22;23285;50.180;7.036;2022-07-09T06:12:16;18.10;99.90
37426;DHT22;23285;50.180;7.036;2022-07-09T06:17:46;18.40;99.90
37426;DHT22;23285;50.180;7.036;2022-07-09T06:20:31;18.50;99.90
37426;DHT22;23285;50.180;7.036;2022-07-09T06:26:02;18.60;99.90
37426;DHT22;23285;50.180;7.036;2022-07-09T06:28:47;18.60;99.90
37426;DHT22;23285;50.180;7.036;2022-07-09T06:31:33;18.70;99.90
37426;DHT22;23285;50.180;7.036;2022-07-09T06:34:19;18.60;99.90
37426;DHT22;23285;50.180;7.036;2022-07-09T06:37:04;18.70;99.90
37426;DHT22;23285;50.180;7.036;2022-07-09T06:42:34;18.70;99.90
37426;DHT22;23285;50.180;7.036;2022-07-09T06:45:27;18.90;99.90
37426;DHT22;23285;50.180;7.036;2022-07-09T06:48:12;18.90;99.90
37426;DHT22;23285;50.180;7.036;2022-07-09T06:53:42;19.20;99.90
37426;DHT22;23285;50.180;7.036;2022-07-09T07:04:44;19.00;99.90
37426;DHT22;23285;50.180;7.036;2022-07-09T07:07:29;19.30;99.90
37426;DHT22;23285;50.180;7.036;2022-07-09T07:10:14;19.20;99.90
37426;DHT22;23285;50.180;7.036;2022-07-09T07:12:59;19.50;99.90
37426;DHT22;23285;50.180;7.036;2022-07-09T07:15:44;19.70;99.90
37426;DHT22;23285;50.180;7.036;2022-07-09T07:18:33;19.90;99.90
37426;DHT22;23285;50.180;7.036;2022-07-09T07:21:18;20.00;99.90
37426;DHT22;23285;50.180;7.036;2022-07-09T07:24:05;20.10;99.90
37426;DHT22;23285;50.180;7.036;2022-07-09T07:29:35;20.20;99.90
37426;DHT22;23285;50.180;7.036;2022-07-09T07:32:20;20.20;99.90
37426;DHT22;23285;50.180;7.036;2022-07-09T07:35:05;20.30;99.90
37426;DHT22;23285;50.180;7.036;2022-07-09T07:37:51;20.30;99.90
37426;DHT22;23285;50.180;7.036;2022-07-09T07:40:36;20.30;99.90
37426;DHT22;23285;50.180;7.036;2022-07-09T07:43:21;20.10;99.90
37426;DHT22;23285;50.180;7.036;2022-07-09T07:46:06;20.30;99.70
37426;DHT22;23285;50.180;7.036;2022-07-09T07:48:51;20.40;99.90
37426;DHT22;23285;50.180;7.036;2022-07-09T07:51:37;20.40;99.90
37426;DHT22;23285;50.180;7.036;2022-07-09T07:57:07;20.20;99.90
37426;DHT22;23285;50.180;7.036;2022-07-09T07:59:52;20.20;99.90
37426;DHT22;23285;50.180;7.036;2022-07-09T08:02:37;20.40;99.90
37426;DHT22;23285;50.180;7.036;2022-07-09T08:05:22;20.20;99.90
37426;DHT22;23285;50.180;7.036;2022-07-09T08:08:07;20.30;99.90
37426;DHT22;23285;50.180;7.036;2022-07-09T08:10:52;20.70;99.90
37426;DHT22;23285;50.180;7.036;2022-07-09T08:13:37;20.90;99.90
37426;DHT22;23285;50.180;7.036;2022-07-09T08:16:24;21.00;99.90
37426;DHT22;23285;50.180;7.036;2022-07-09T08:21:54;20.90;99.90
37426;DHT22;23285;50.180;7.036;2022-07-09T08:24:39;21.20;99.50
37426;DHT22;23285;50.180;7.036;2022-07-09T08:27:24;21.20;99.90
37426;DHT22;23285;50.180;7.036;2022-07-09T08:30:09;21.40;99.50
37426;DHT22;23285;50.180;7.036;2022-07-09T08:32:54;21.50;99.00
37426;DHT22;23285;50.180;7.036;2022-07-09T08:35:39;21.70;99.60
37426;DHT22;23285;50.180;7.036;2022-07-09T08:43:55;22.00;97.70
37426;DHT22;23285;50.180;7.036;2022-07-09T08:46:40;21.80;98.80
37426;DHT22;23285;50.180;7.036;2022-07-09T08:52:12;22.00;98.70
37426;DHT22;23285;50.180;7.036;2022-07-09T08:54:58;22.20;99.90
37426;DHT22;23285;50.180;7.036;2022-07-09T09:00:28;22.70;97.70
37426;DHT22;23285;50.180;7.036;2022-07-09T09:06:06;22.50;96.90
37426;DHT22;23285;50.180;7.036;2022-07-09T09:11:40;22.30;97.30
37426;DHT22;23285;50.180;7.036;2022-07-09T09:17:11;22.30;97.50
37426;DHT22;23285;50.180;7.036;2022-07-09T09:19:58;22.60;97.60
37426;DHT22;23285;50.180;7.036;2022-07-09T09:25:31;22.50;96.60
37426;DHT22;23285;50.180;7.036;2022-07-09T09:28:16;22.50;96.00
37426;DHT22;23285;50.180;7.036;2022-07-09T09:31:01;22.70;96.20
37426;DHT22;23285;50.180;7.036;2022-07-09T09:33:46;22.70;95.60
37426;DHT22;23285;50.180;7.036;2022-07-09T09:36:36;22.70;95.90
37426;DHT22;23285;50.180;7.036;2022-07-09T09:39:24;22.90;96.80
37426;DHT22;23285;50.180;7.036;2022-07-09T09:42:11;23.00;96.10
37426;DHT22;23285;50.180;7.036;2022-07-09T09:44:59;23.40;97.00
37426;DHT22;23285;50.180;7.036;2022-07-09T09:47:50;23.70;95.70
37426;DHT22;23285;50.180;7.036;2022-07-09T09:56:06;23.20;95.70
37426;DHT22;23285;50.180;7.036;2022-07-09T09:58:53;23.30;95.20
37426;DHT22;23285;50.180;7.036;2022-07-09T10:04:25;23.80;96.10
37426;DHT22;23285;50.180;7.036;2022-07-09T10:07:12;24.10;93.50
37426;DHT22;23285;50.180;7.036;2022-07-09T10:09:58;24.00;94.10
37426;DHT22;23285;50.180;7.036;2022-07-09T10:15:31;24.50;93.00
37426;DHT22;23285;50.180;7.036;2022-07-09T10:18:19;24.80;92.40
37426;DHT22;23285;50.180;7.036;2022-07-09T10:21:04;25.10;91.70
37426;DHT22;23285;50.180;7.036;2022-07-09T10:23:50;25.00;90.00
37426;DHT22;23285;50.180;7.036;2022-07-09T10:32:31;24.80;91.50
37426;DHT22;23285;50.180;7.036;2022-07-09T10:35:26;24.90;92.60
37426;DHT22;23285;50.180;7.036;2022-07-09T10:38:12;24.70;91.50
37426;DHT22;23285;50.180;7.036;2022-07-09T10:40:59;24.80;91.50
37426;DHT22;23285;50.180;7.036;2022-07-09T10:43:50;24.60;91.70
37426;DHT22;23285;50.180;7.036;2022-07-09T10:46:36;24.90;91.70
37426;DHT22;23285;50.180;7.036;2022-07-09T10:49:21;25.20;90.80
37426;DHT22;23285;50.180;7.036;2022-07-09T10:54:52;25.00;89.40
37426;DHT22;23285;50.180;7.036;2022-07-09T10:57:40;25.20;89.10
37426;DHT22;23285;50.180;7.036;2022-07-09T11:00:27;25.00;89.20
37426;DHT22;23285;50.180;7.036;2022-07-09T11:03:12;25.30;90.00
37426;DHT22;23285;50.180;7.036;2022-07-09T11:08:43;25.90;86.40
37426;DHT22;23285;50.180;7.036;2022-07-09T11:14:14;25.30;84.70
37426;DHT22;23285;50.180;7.036;2022-07-09T11:22:31;25.20;89.10
37426;DHT22;23285;50.180;7.036;2022-07-09T11:25:18;25.40;90.10
37426;DHT22;23285;50.180;7.036;2022-07-09T11:31:02;25.60;87.60
37426;DHT22;23285;50.180;7.036;2022-07-09T11:33:48;25.10;87.40
37426;DHT22;23285;50.180;7.036;2022-07-09T11:45:30;25.30;88.40
37426;DHT22;23285;50.180;7.036;2022-07-09T11:48:15;25.50;87.40
37426;DHT22;23285;50.180;7.036;2022-07-09T11:51:00;25.70;89.00
37426;DHT22;23285;50.180;7.036;2022-07-09T11:53:50;25.90;87.10
37426;DHT22;23285;50.180;7.036;2022-07-09T11:56:43;26.10;86.20
37426;DHT22;23285;50.180;7.036;2022-07-09T11:59:30;26.30;86.00
37426;DHT22;23285;50.180;7.036;2022-07-09T12:02:33;26.30;87.20
37426;DHT22;23285;50.180;7.036;2022-07-09T12:08:26;25.10;89.00
37426;DHT22;23285;50.180;7.036;2022-07-09T12:11:12;25.20;88.70
37426;DHT22;23285;50.180;7.036;2022-07-09T12:13:57;25.60;86.20
37426;DHT22;23285;50.180;7.036;2022-07-09T12:19:28;25.50;88.90
37426;DHT22;23285;50.180;7.036;2022-07-09T12:22:13;25.60;85.50
37426;DHT22;23285;50.180;7.036;2022-07-09T12:27:43;25.90;88.10
37426;DHT22;23285;50.180;7.036;2022-07-09T12:30:28;25.60;85.60
37426;DHT22;23285;50.180;7.036;2022-07-09T12:33:16;25.70;86.80
37426;DHT22;23285;50.180;7.036;2022-07-09T12:38:47;25.60;89.30
37426;DHT22;23285;50.180;7.036;2022-07-09T12:41:32;25.80;85.40
37426;DHT22;23285;50.180;7.036;2022-07-09T12:44:17;25.90;84.60
37426;DHT22;23285;50.180;7.036;2022-07-09T12:47:02;26.10;85.90
37426;DHT22;23285;50.180;7.036;2022-07-09T12:49:47;25.80;86.30
37426;DHT22;23285;50.180;7.036;2022-07-09T12:52:33;25.60;86.30
37426;DHT22;23285;50.180;7.036;2022-07-09T12:55:18;25.60;85.70
37426;DHT22;23285;50.180;7.036;2022-07-09T12:58:03;25.40;84.70
37426;DHT22;23285;50.180;7.036;2022-07-09T13:00:48;25.10;87.30
37426;DHT22;23285;50.180;7.036;2022-07-09T13:03:33;25.10;85.70
37426;DHT22;23285;50.180;7.036;2022-07-09T13:06:18;25.20;86.20
37426;DHT22;23285;50.180;7.036;2022-07-09T13:09:18;25.20;88.20
37426;DHT22;23285;50.180;7.036;2022-07-09T13:12:04;25.40;86.90
37426;DHT22;23285;50.180;7.036;2022-07-09T13:14:49;25.00;86.20
37426;DHT22;23285;50.180;7.036;2022-07-09T13:17:34;25.00;86.10
37426;DHT22;23285;50.180;7.036;2022-07-09T13:20:19;24.80;86.00
37426;DHT22;23285;50.180;7.036;2022-07-09T13:23:04;24.90;86.40
37426;DHT22;23285;50.180;7.036;2022-07-09T13:25:49;24.70;86.10
37426;DHT22;23285;50.180;7.036;2022-07-09T13:28:34;24.50;86.20
37426;DHT22;23285;50.180;7.036;2022-07-09T13:31:19;24.50;87.90
37426;DHT22;23285;50.180;7.036;2022-07-09T13:34:06;24.40;87.60
37426;DHT22;23285;50.180;7.036;2022-07-09T13:36:51;24.30;87.50
37426;DHT22;23285;50.180;7.036;2022-07-09T13:39:35;24.50;86.90
37426;DHT22;23285;50.180;7.036;2022-07-09T13:42:21;24.70;89.00
37426;DHT22;23285;50.180;7.036;2022-07-09T13:45:06;25.00;87.80
37426;DHT22;23285;50.180;7.036;2022-07-09T13:47:51;25.10;86.40
37426;DHT22;23285;50.180;7.036;2022-07-09T13:50:37;25.10;87.70
37426;DHT22;23285;50.180;7.036;2022-07-09T13:53:22;25.40;86.60
37426;DHT22;23285;50.180;7.036;2022-07-09T13:56:07;25.90;85.80
37426;DHT22;23285;50.180;7.036;2022-07-09T13:58:52;25.60;85.00
37426;DHT22;23285;50.180;7.036;2022-07-09T14:01:37;25.60;86.30
37426;DHT22;23285;50.180;7.036;2022-07-09T14:04:23;25.90;86.50
37426;DHT22;23285;50.180;7.036;2022-07-09T14:07:08;26.00;85.40
37426;DHT22;23285;50.180;7.036;2022-07-09T14:09:53;26.30;84.50
37426;DHT22;23285;50.180;7.036;2022-07-09T14:18:08;26.40;86.20
37426;DHT22;23285;50.180;7.036;2022-07-09T14:26:24;26.00;85.80
37426;DHT22;23285;50.180;7.036;2022-07-09T14:29:11;26.10;84.90
37426;DHT22;23285;50.180;7.036;2022-07-09T14:31:56;26.30;84.10
37426;DHT22;23285;50.180;7.036;2022-07-09T14:34:41;26.40;82.40
37426;DHT22;23285;50.180;7.036;2022-07-09T14:37:26;26.60;81.50
37426;DHT22;23285;50.180;7.036;2022-07-09T14:40:12;26.70;81.90
37426;DHT22;23285;50.180;7.036;2022-07-09T14:45:43;26.90;80.80
37426;DHT22;23285;50.180;7.036;2022-07-09T14:48:28;26.80;79.40
37426;DHT22;23285;50.180;7.036;2022-07-09T14:51:13;26.70;79.30
37426;DHT22;23285;50.180;7.036;2022-07-09T14:53:59;26.70;83.20
37426;DHT22;23285;50.180;7.036;2022-07-09T14:56:44;26.80;82.00
37426;DHT22;23285;50.180;7.036;2022-07-09T14:59:29;26.80;82.40
37426;DHT22;23285;50.180;7.036;2022-07-09T15:02:14;27.10;82.00
37426;DHT22;23285;50.180;7.036;2022-07-09T15:04:59;26.90;80.00
37426;DHT22;23285;50.180;7.036;2022-07-09T15:07:44;26.50;81.10
37426;DHT22;23285;50.180;7.036;2022-07-09T15:10:29;26.00;81.90
37426;DHT22;23285;50.180;7.036;2022-07-09T15:13:14;25.60;83.00
37426;DHT22;23285;50.180;7.036;2022-07-09T15:15:59;25.40;83.90
37426;DHT22;23285;50.180;7.036;2022-07-09T15:18:45;25.30;84.90
37426;DHT22;23285;50.180;7.036;2022-07-09T15:21:30;25.50;85.00
37426;DHT22;23285;50.180;7.036;2022-07-09T15:24:16;25.10;86.50
37426;DHT22;23285;50.180;7.036;2022-07-09T15:27:01;25.10;86.60
37426;DHT22;23285;50.180;7.036;2022-07-09T15:29:46;25.00;85.40
37426;DHT22;23285;50.180;7.036;2022-07-09T15:32:31;24.70;87.40
37426;DHT22;23285;50.180;7.036;2022-07-09T15:35:16;24.90;87.20
37426;DHT22;23285;50.180;7.036;2022-07-09T15:38:01;24.60;88.90
37426;DHT22;23285;50.180;7.036;2022-07-09T15:43:31;23.30;94.50
37426;DHT22;23285;50.180;7.036;2022-07-09T15:46:17;22.80;94.60
37426;DHT22;23285;50.180;7.036;2022-07-09T15:49:02;22.20;96.00
37426;DHT22;23285;50.180;7.036;2022-07-09T15:54:33;22.20;97.40
37426;DHT22;23285;50.180;7.036;2022-07-09T16:00:05;22.00;97.90
37426;DHT22;23285;50.180;7.036;2022-07-09T16:02:51;22.20;98.10
37426;DHT22;23285;50.180;7.036;2022-07-09T16:05:37;22.30;98.20
37426;DHT22;23285;50.180;7.036;2022-07-09T16:08:22;22.50;97.70
37426;DHT22;23285;50.180;7.036;2022-07-09T16:11:08;22.70;98.30
37426;DHT22;23285;50.180;7.036;2022-07-09T16:14:21;22.80;97.70
37426;DHT22;23285;50.180;7.036;2022-07-09T16:22:37;22.40;98.40
37426;DHT22;23285;50.180;7.036;2022-07-09T16:25:22;22.60;98.80
37426;DHT22;23285;50.180;7.036;2022-07-09T16:30:53;23.00;98.20
37426;DHT22;23285;50.180;7.036;2022-07-09T16:36:25;22.70;98.30
37426;DHT22;23285;50.180;7.036;2022-07-09T16:41:56;22.70;98.20
37426;DHT22;23285;50.180;7.036;2022-07-09T16:44:41;22.90;97.90
37426;DHT22;23285;50.180;7.036;2022-07-09T16:47:26;22.90;97.40
37426;DHT22;23285;50.180;7.036;2022-07-09T16:50:11;23.10;97.50
37426;DHT22;23285;50.180;7.036;2022-07-09T16:52:56;23.00;97.30
37426;DHT22;23285;50.180;7.036;2022-07-09T16:55:41;23.00;97.50
37426;DHT22;23285;50.180;7.036;2022-07-09T16:58:26;23.40;97.10
37426;DHT22;23285;50.180;7.036;2022-07-09T17:01:11;23.50;97.80
37426;DHT22;23285;50.180;7.036;2022-07-09T17:03:57;23.10;97.70
37426;DHT22;23285;50.180;7.036;2022-07-09T17:06:43;22.90;99.00
37426;DHT22;23285;50.180;7.036;2022-07-09T17:09:29;23.10;99.10
37426;DHT22;23285;50.180;7.036;2022-07-09T17:12:14;23.30;97.10
37426;DHT22;23285;50.180;7.036;2022-07-09T17:17:44;23.80;98.00
37426;DHT22;23285;50.180;7.036;2022-07-09T17:20:29;23.90;96.50
37426;DHT22;23285;50.180;7.036;2022-07-09T17:23:14;23.40;96.80
37426;DHT22;23285;50.180;7.036;2022-07-09T17:25:59;23.10;97.00
37426;DHT22;23285;50.180;7.036;2022-07-09T17:28:44;23.10;97.00
37426;DHT22;23285;50.180;7.036;2022-07-09T17:37:03;23.30;97.50
37426;DHT22;23285;50.180;7.036;2022-07-09T17:39:48;23.00;96.90
37426;DHT22;23285;50.180;7.036;2022-07-09T17:45:19;23.00;97.60
37426;DHT22;23285;50.180;7.036;2022-07-09T17:48:04;23.10;97.10
37426;DHT22;23285;50.180;7.036;2022-07-09T17:56:20;23.40;96.60
37426;DHT22;23285;50.180;7.036;2022-07-09T17:59:05;22.80;95.50
37426;DHT22;23285;50.180;7.036;2022-07-09T18:01:50;22.50;96.20
37426;DHT22;23285;50.180;7.036;2022-07-09T18:04:35;22.70;96.00
37426;DHT22;23285;50.180;7.036;2022-07-09T18:15:36;22.40;96.90
37426;DHT22;23285;50.180;7.036;2022-07-09T18:18:21;22.10;96.00
37426;DHT22;23285;50.180;7.036;2022-07-09T18:21:07;22.00;96.40
37426;DHT22;23285;50.180;7.036;2022-07-09T18:23:53;22.20;97.10
37426;DHT22;23285;50.180;7.036;2022-07-09T18:26:37;22.00;96.20
37426;DHT22;23285;50.180;7.036;2022-07-09T18:29:23;21.70;96.00
37426;DHT22;23285;50.180;7.036;2022-07-09T18:32:08;21.20;97.00
37426;DHT22;23285;50.180;7.036;2022-07-09T18:34:53;21.20;96.60
37426;DHT22;23285;50.180;7.036;2022-07-09T18:37:39;21.40;97.20
37426;DHT22;23285;50.180;7.036;2022-07-09T18:40:25;21.30;97.00
37426;DHT22;23285;50.180;7.036;2022-07-09T18:45:55;21.20;97.10
37426;DHT22;23285;50.180;7.036;2022-07-09T18:48:40;20.70;96.90
37426;DHT22;23285;50.180;7.036;2022-07-09T18:51:25;20.70;96.80
37426;DHT22;23285;50.180;7.036;2022-07-09T18:54:11;20.60;96.90
37426;DHT22;23285;50.180;7.036;2022-07-09T18:56:56;20.80;96.80
37426;DHT22;23285;50.180;7.036;2022-07-09T18:59:41;20.90;96.20
37426;DHT22;23285;50.180;7.036;2022-07-09T19:02:27;20.60;96.30
37426;DHT22;23285;50.180;7.036;2022-07-09T19:05:12;20.40;97.50
37426;DHT22;23285;50.180;7.036;2022-07-09T19:07:57;20.40;96.20
37426;DHT22;23285;50.180;7.036;2022-07-09T19:10:42;20.40;95.80
37426;DHT22;23285;50.180;7.036;2022-07-09T19:13:27;19.90;96.10
37426;DHT22;23285;50.180;7.036;2022-07-09T19:18:57;19.60;96.50
37426;DHT22;23285;50.180;7.036;2022-07-09T19:21:43;19.50;96.10
37426;DHT22;23285;50.180;7.036;2022-07-09T19:24:28;19.30;95.70
37426;DHT22;23285;50.180;7.036;2022-07-09T19:27:13;19.40;94.50
37426;DHT22;23285;50.180;7.036;2022-07-09T19:32:43;19.00;95.50
37426;DHT22;23285;50.180;7.036;2022-07-09T19:35:46;19.20;95.00
37426;DHT22;23285;50.180;7.036;2022-07-09T19:38:31;19.10;94.20
37426;DHT22;23285;50.180;7.036;2022-07-09T19:41:17;18.90;94.50
37426;DHT22;23285;50.180;7.036;2022-07-09T19:49:38;19.10;95.10
37426;DHT22;23285;50.180;7.036;2022-07-09T19:52:23;18.90;94.30
37426;DHT22;23285;50.180;7.036;2022-07-09T19:55:10;18.70;95.40
37426;DHT22;23285;50.180;7.036;2022-07-09T20:00:40;19.10;94.90
37426;DHT22;23285;50.180;7.036;2022-07-09T20:03:25;18.70;94.50
37426;DHT22;23285;50.180;7.036;2022-07-09T20:08:56;18.90;95.00
37426;DHT22;23285;50.180;7.036;2022-07-09T20:14:26;19.40;94.80
37426;DHT22;23285;50.180;7.036;2022-07-09T20:17:12;19.20;93.80
37426;DHT22;23285;50.180;7.036;2022-07-09T20:22:42;19.30;94.80
37426;DHT22;23285;50.180;7.036;2022-07-09T20:30:59;18.60;95.10
37426;DHT22;23285;50.180;7.036;2022-07-09T20:33:44;18.60;94.50
37426;DHT22;23285;50.180;7.036;2022-07-09T20:36:29;18.50;94.50
37426;DHT22;23285;50.180;7.036;2022-07-09T20:39:14;18.40;95.70
37426;DHT22;23285;50.180;7.036;2022-07-09T20:41:59;18.60;94.50
37426;DHT22;23285;50.180;7.036;2022-07-09T20:47:29;18.60;95.30
37426;DHT22;23285;50.180;7.036;2022-07-09T20:50:14;18.50;94.80
37426;DHT22;23285;50.180;7.036;2022-07-09T20:52:59;18.30;94.90
37426;DHT22;23285;50.180;7.036;2022-07-09T20:55:46;18.60;95.80
37426;DHT22;23285;50.180;7.036;2022-07-09T20:58:31;18.50;95.40
37426;DHT22;23285;50.180;7.036;2022-07-09T21:01:16;18.20;95.10
37426;DHT22;23285;50.180;7.036;2022-07-09T21:06:46;18.20;95.90
37426;DHT22;23285;50.180;7.036;2022-07-09T21:15:03;18.20;96.00
37426;DHT22;23285;50.180;7.036;2022-07-09T21:17:48;18.10;96.90
37426;DHT22;23285;50.180;7.036;2022-07-09T21:20:52;17.60;97.00
37426;DHT22;23285;50.180;7.036;2022-07-09T21:26:22;17.50;97.90
37426;DHT22;23285;50.180;7.036;2022-07-09T21:29:07;17.40;97.30
37426;DHT22;23285;50.180;7.036;2022-07-09T21:31:52;17.30;97.80
37426;DHT22;23285;50.180;7.036;2022-07-09T21:34:38;17.20;98.60
37426;DHT22;23285;50.180;7.036;2022-07-09T21:37:23;17.30;98.30
37426;DHT22;23285;50.180;7.036;2022-07-09T21:40:08;17.30;98.30
37426;DHT22;23285;50.180;7.036;2022-07-09T21:42:53;17.20;99.10
37426;DHT22;23285;50.180;7.036;2022-07-09T21:45:39;17.10;99.10
37426;DHT22;23285;50.180;7.036;2022-07-09T21:48:24;17.10;99.00
37426;DHT22;23285;50.180;7.036;2022-07-09T21:53:55;17.20;99.90
37426;DHT22;23285;50.180;7.036;2022-07-09T21:56:40;17.40;98.70